sensor_id;sensor_type;location;lat;lon;timestamp;temperature;humidity
29713;DHT22;16623;53.632;10.016;2024-03-07T00:01:00;4.20;99.90
29713;DHT22;16623;53.632;10.016;2024-03-07T00:03:28;4.20;99.90
29713;DHT22;16623;53.632;10.016;2024-03-07T00:05:53;4.20;99.90
29713;DHT22;16623;53.632;10.016;2024-03-07T00:08:19;4.20;99.90
29713;DHT22;16623;53.632;10.016;2024-03-07T00:10:44;4.30;99.90
29713;DHT22;16623;53.632;10.016;2024-03-07T00:13:10;4.30;99.90
29713;DHT22;16623;53.632;10.016;2024-03-07T00:15:36;4.30;99.90
29713;DHT22;16623;53.632;10.016;2024-03-07T00:18:02;4.30;99.90
29713;DHT22;16623;53.632;10.016;2024-03-07T00:20:27;4.40;99.90
29713;DHT22;16623;53.632;10.016;2024-03-07T00:22:53;4.40;99.90
29713;DHT22;16623;53.632;10.016;2024-03-07T00:25:18;4.30;99.90
29713;DHT22;16623;53.632;10.016;2024-03-07T00:27:45;4.30;99.90
29713;DHT22;16623;53.632;10.016;2024-03-07T00:30:11;4.40;99.90
29713;DHT22;16623;53.632;10.016;2024-03-07T00:32:39;4.40;99.90
29713;DHT22;16623;53.632;10.016;2024-03-07T00:35:07;4.50;99.90
29713;DHT22;16623;53.632;10.016;2024-03-07T00:37:34;4.40;99.90
29713;DHT22;16623;53.632;10.016;2024-03-07T00:39:59;4.40;99.90
29713;DHT22;16623;53.632;10.016;2024-03-07T00:42:25;4.40;99.90
29713;DHT22;16623;53.632;10.016;2024-03-07T00:44:51;4.40;99.90
29713;DHT22;16623;53.632;10.016;2024-03-07T00:47:16;4.50;99.90
29713;DHT22;16623;53.632;10.016;2024-03-07T00:49:45;4.50;99.90
29713;DHT22;16623;53.632;10.016;2024-03-07T00:52:14;4.50;99.90
29713;DHT22;16623;53.632;10.016;2024-03-07T00:54:39;4.50;99.90
29713;DHT22;16623;53.632;10.016;2024-03-07T00:57:05;4.50;99.90
29713;DHT22;16623;53.632;10.016;2024-03-07T00:59:31;4.50;99.90
29713;DHT22;16623;53.632;10.016;2024-03-07T01:01:56;4.50;99.90
29713;DHT22;16623;53.632;10.016;2024-03-07T01:04:22;4.50;99.90
29713;DHT22;16623;53.632;10.016;2024-03-07T01:06:48;4.40;99.90
29713;DHT22;16623;53.632;10.016;2024-03-07T01:09:14;4.50;99.90
29713;DHT22;16623;53.632;10.016;2024-03-07T01:11:43;4.50;99.90
29713;DHT22;16623;53.632;10.016;2024-03-07T01:14:10;4.50;99.90
29713;DHT22;16623;53.632;10.016;2024-03-07T01:16:35;4.40;99.90
29713;DHT22;16623;53.632;10.016;2024-03-07T01:19:01;4.80;99.90
29713;DHT22;16623;53.632;10.016;2024-03-07T01:21:27;4.50;99.90
29713;DHT22;16623;53.632;10.016;2024-03-07T01:23:52;4.50;99.90
29713;DHT22;16623;53.632;10.016;2024-03-07T01:26:18;4.50;99.90
29713;DHT22;16623;53.632;10.016;2024-03-07T01:28:44;4.50;99.90
29713;DHT22;16623;53.632;10.016;2024-03-07T01:31:09;4.50;99.90
29713;DHT22;16623;53.632;10.016;2024-03-07T01:33:35;4.50;99.90
29713;DHT22;16623;53.632;10.016;2024-03-07T01:36:01;4.50;99.90
29713;DHT22;16623;53.632;10.016;2024-03-07T01:38:26;4.50;99.90
29713;DHT22;16623;53.632;10.016;2024-03-07T01:40:52;4.50;99.90
29713;DHT22;16623;53.632;10.016;2024-03-07T01:43:19;4.60;99.90
29713;DHT22;16623;53.632;10.016;2024-03-07T01:45:46;4.60;99.90
29713;DHT22;16623;53.632;10.016;2024-03-07T01:48:15;4.50;99.90
29713;DHT22;16623;53.632;10.016;2024-03-07T01:50:46;4.50;99.90
29713;DHT22;16623;53.632;10.016;2024-03-07T01:53:13;4.50;99.90
29713;DHT22;16623;53.632;10.016;2024-03-07T01:55:39;4.50;99.90
29713;DHT22;16623;53.632;10.016;2024-03-07T01:58:06;4.50;99.90
29713;DHT22;16623;53.632;10.016;2024-03-07T02:00:33;4.60;99.90
29713;DHT22;16623;53.632;10.016;2024-03-07T02:02:59;4.60;99.90
29713;DHT22;16623;53.632;10.016;2024-03-07T02:05:25;4.50;99.90
29713;DHT22;16623;53.632;10.016;2024-03-07T02:07:51;4.50;99.90
29713;DHT22;16623;53.632;10.016;2024-03-07T02:10:16;4.50;99.90
29713;DHT22;16623;53.632;10.016;2024-03-07T02:12:43;4.50;99.90
29713;DHT22;16623;53.632;10.016;2024-03-07T02:15:09;4.50;99.90
29713;DHT22;16623;53.632;10.016;2024-03-07T02:17:35;4.50;99.90
29713;DHT22;16623;53.632;10.016;2024-03-07T02:20:01;4.50;99.90
29713;DHT22;16623;53.632;10.016;2024-03-07T02:22:29;4.50;99.90
29713;DHT22;16623;53.632;10.016;2024-03-07T02:24:55;4.50;99.90
29713;DHT22;16623;53.632;10.016;2024-03-07T02:27:20;4.40;99.90
29713;DHT22;16623;53.632;10.016;2024-03-07T02:29:46;4.40;99.90
29713;DHT22;16623;53.632;10.016;2024-03-07T02:32:12;4.40;99.90
29713;DHT22;16623;53.632;10.016;2024-03-07T02:34:38;4.50;99.90
29713;DHT22;16623;53.632;10.016;2024-03-07T02:37:04;4.50;99.90
29713;DHT22;16623;53.632;10.016;2024-03-07T02:39:29;4.50;99.90
29713;DHT22;16623;53.632;10.016;2024-03-07T02:41:55;4.40;99.90
29713;DHT22;16623;53.632;10.016;2024-03-07T02:44:21;4.40;99.90
29713;DHT22;16623;53.632;10.016;2024-03-07T02:46:46;4.40;99.90
29713;DHT22;16623;53.632;10.016;2024-03-07T02:49:15;4.40;99.90
29713;DHT22;16623;53.632;10.016;2024-03-07T02:51:41;4.40;99.90
29713;DHT22;16623;53.632;10.016;2024-03-07T02:54:07;4.40;99.90
29713;DHT22;16623;53.632;10.016;2024-03-07T02:56:33;4.40;99.90
29713;DHT22;16623;53.632;10.016;2024-03-07T02:58:58;4.40;99.90
29713;DHT22;16623;53.632;10.016;2024-03-07T03:01:24;4.40;99.90
29713;DHT22;16623;53.632;10.016;2024-03-07T03:03:49;4.40;99.90
29713;DHT22;16623;53.632;10.016;2024-03-07T03:06:15;6.20;99.90
29713;DHT22;16623;53.632;10.016;2024-03-07T03:08:41;4.30;99.90
29713;DHT22;16623;53.632;10.016;2024-03-07T03:11:06;4.30;99.90
29713;DHT22;16623;53.632;10.016;2024-03-07T03:13:37;4.20;99.90
29713;DHT22;16623;53.632;10.016;2024-03-07T03:16:03;4.20;99.90
29713;DHT22;16623;53.632;10.016;2024-03-07T03:18:30;4.20;99.90
29713;DHT22;16623;53.632;10.016;2024-03-07T03:20:56;4.20;99.90
29713;DHT22;16623;53.632;10.016;2024-03-07T03:23:22;4.20;99.90
29713;DHT22;16623;53.632;10.016;2024-03-07T03:25:48;4.30;99.90
29713;DHT22;16623;53.632;10.016;2024-03-07T03:28:13;4.20;99.90
29713;DHT22;16623;53.632;10.016;2024-03-07T03:30:39;4.20;99.90
29713;DHT22;16623;53.632;10.016;2024-03-07T03:33:06;4.10;99.90
29713;DHT22;16623;53.632;10.016;2024-03-07T03:35:35;4.10;99.90
29713;DHT22;16623;53.632;10.016;2024-03-07T03:38:00;4.10;99.90
29713;DHT22;16623;53.632;10.016;2024-03-07T03:40:26;4.10;99.90
29713;DHT22;16623;53.632;10.016;2024-03-07T03:42:52;4.00;99.90
29713;DHT22;16623;53.632;10.016;2024-03-07T03:45:18;3.90;99.90
29713;DHT22;16623;53.632;10.016;2024-03-07T03:47:44;3.90;99.90
29713;DHT22;16623;53.632;10.016;2024-03-07T03:50:11;3.90;99.90
29713;DHT22;16623;53.632;10.016;2024-03-07T03:52:37;3.80;99.90
29713;DHT22;16623;53.632;10.016;2024-03-07T03:55:04;3.80;99.90
29713;DHT22;16623;53.632;10.016;2024-03-07T03:57:34;3.80;99.90
29713;DHT22;16623;53.632;10.016;2024-03-07T04:00:00;3.70;99.90
29713;DHT22;16623;53.632;10.016;2024-03-07T04:02:26;3.70;99.90
29713;DHT22;16623;53.632;10.016;2024-03-07T04:04:52;3.80;99.90
29713;DHT22;16623;53.632;10.016;2024-03-07T04:07:18;3.70;99.90
29713;DHT22;16623;53.632;10.016;2024-03-07T04:09:45;3.70;99.90
29713;DHT22;16623;53.632;10.016;2024-03-07T04:12:11;3.70;99.90
29713;DHT22;16623;53.632;10.016;2024-03-07T04:14:40;3.60;99.90
29713;DHT22;16623;53.632;10.016;2024-03-07T04:17:10;3.60;99.90
29713;DHT22;16623;53.632;10.016;2024-03-07T04:19:42;3.50;99.90
29713;DHT22;16623;53.632;10.016;2024-03-07T04:22:08;3.30;99.90
29713;DHT22;16623;53.632;10.016;2024-03-07T04:24:34;3.40;99.90
29713;DHT22;16623;53.632;10.016;2024-03-07T04:27:01;3.30;99.90
29713;DHT22;16623;53.632;10.016;2024-03-07T04:29:33;3.30;99.90
29713;DHT22;16623;53.632;10.016;2024-03-07T04:32:00;3.20;99.90
29713;DHT22;16623;53.632;10.016;2024-03-07T04:34:26;3.20;99.90
29713;DHT22;16623;53.632;10.016;2024-03-07T04:36:53;3.10;99.90
29713;DHT22;16623;53.632;10.016;2024-03-07T04:39:18;3.20;99.90
29713;DHT22;16623;53.632;10.016;2024-03-07T04:41:54;3.20;99.90
29713;DHT22;16623;53.632;10.016;2024-03-07T04:44:20;3.10;99.90
29713;DHT22;16623;53.632;10.016;2024-03-07T04:46:50;3.00;99.90
29713;DHT22;16623;53.632;10.016;2024-03-07T04:49:23;3.00;99.90
29713;DHT22;16623;53.632;10.016;2024-03-07T04:51:53;2.90;99.90
29713;DHT22;16623;53.632;10.016;2024-03-07T04:54:20;2.90;99.90
29713;DHT22;16623;53.632;10.016;2024-03-07T04:56:46;2.90;99.90
29713;DHT22;16623;53.632;10.016;2024-03-07T04:59:12;2.80;99.90
29713;DHT22;16623;53.632;10.016;2024-03-07T05:01:39;2.80;99.90
29713;DHT22;16623;53.632;10.016;2024-03-07T05:04:08;2.70;99.90
29713;DHT22;16623;53.632;10.016;2024-03-07T05:06:34;2.70;99.90
29713;DHT22;16623;53.632;10.016;2024-03-07T05:09:01;2.60;99.90
29713;DHT22;16623;53.632;10.016;2024-03-07T05:11:28;2.60;99.90
29713;DHT22;16623;53.632;10.016;2024-03-07T05:13:53;2.60;99.90
29713;DHT22;16623;53.632;10.016;2024-03-07T05:16:19;2.60;99.90
29713;DHT22;16623;53.632;10.016;2024-03-07T05:18:45;2.60;99.90
29713;DHT22;16623;53.632;10.016;2024-03-07T05:21:10;2.50;99.90
29713;DHT22;16623;53.632;10.016;2024-03-07T05:24:11;2.50;99.90
29713;DHT22;16623;53.632;10.016;2024-03-07T05:26:37;2.50;99.90
29713;DHT22;16623;53.632;10.016;2024-03-07T05:29:09;2.50;99.90
29713;DHT22;16623;53.632;10.016;2024-03-07T05:31:37;2.50;99.90
29713;DHT22;16623;53.632;10.016;2024-03-07T05:34:06;2.50;99.90
29713;DHT22;16623;53.632;10.016;2024-03-07T05:36:37;2.50;99.90
29713;DHT22;16623;53.632;10.016;2024-03-07T05:39:12;2.50;99.90
29713;DHT22;16623;53.632;10.016;2024-03-07T05:41:39;2.60;99.90
29713;DHT22;16623;53.632;10.016;2024-03-07T05:44:05;2.50;99.90
29713;DHT22;16623;53.632;10.016;2024-03-07T05:46:41;2.50;99.90
29713;DHT22;16623;53.632;10.016;2024-03-07T05:49:11;2.50;99.90
29713;DHT22;16623;53.632;10.016;2024-03-07T05:51:37;2.50;99.90
29713;DHT22;16623;53.632;10.016;2024-03-07T05:54:02;2.50;99.90
29713;DHT22;16623;53.632;10.016;2024-03-07T05:56:35;2.50;99.90
29713;DHT22;16623;53.632;10.016;2024-03-07T05:59:02;2.60;99.90
29713;DHT22;16623;53.632;10.016;2024-03-07T06:01:30;2.60;99.90
29713;DHT22;16623;53.632;10.016;2024-03-07T06:04:04;2.60;99.90
29713;DHT22;16623;53.632;10.016;2024-03-07T06:06:31;2.50;99.90
29713;DHT22;16623;53.632;10.016;2024-03-07T06:09:00;2.50;99.90
29713;DHT22;16623;53.632;10.016;2024-03-07T06:11:25;2.50;99.90
29713;DHT22;16623;53.632;10.016;2024-03-07T06:13:51;2.50;99.90
29713;DHT22;16623;53.632;10.016;2024-03-07T06:16:16;2.40;99.90
29713;DHT22;16623;53.632;10.016;2024-03-07T06:18:43;2.40;99.90
29713;DHT22;16623;53.632;10.016;2024-03-07T06:21:11;2.40;99.90
29713;DHT22;16623;53.632;10.016;2024-03-07T06:23:38;2.40;99.90
29713;DHT22;16623;53.632;10.016;2024-03-07T06:26:04;2.40;99.90
29713;DHT22;16623;53.632;10.016;2024-03-07T06:28:38;2.50;99.90
29713;DHT22;16623;53.632;10.016;2024-03-07T06:31:04;2.50;99.90
29713;DHT22;16623;53.632;10.016;2024-03-07T06:33:33;2.50;99.90
29713;DHT22;16623;53.632;10.016;2024-03-07T06:35:58;2.50;99.90
29713;DHT22;16623;53.632;10.016;2024-03-07T06:38:26;2.50;99.90
29713;DHT22;16623;53.632;10.016;2024-03-07T06:40:52;2.40;99.90
29713;DHT22;16623;53.632;10.016;2024-03-07T06:43:18;2.50;99.90
29713;DHT22;16623;53.632;10.016;2024-03-07T06:45:43;2.40;99.90
29713;DHT22;16623;53.632;10.016;2024-03-07T06:48:11;2.50;99.90
29713;DHT22;16623;53.632;10.016;2024-03-07T06:50:39;2.50;99.90
29713;DHT22;16623;53.632;10.016;2024-03-07T06:53:05;2.40;99.90
29713;DHT22;16623;53.632;10.016;2024-03-07T06:55:34;2.50;99.90
29713;DHT22;16623;53.632;10.016;2024-03-07T06:58:00;2.50;99.90
29713;DHT22;16623;53.632;10.016;2024-03-07T07:00:27;2.50;99.90
29713;DHT22;16623;53.632;10.016;2024-03-07T07:02:53;2.50;99.90
29713;DHT22;16623;53.632;10.016;2024-03-07T07:05:21;2.60;99.90
29713;DHT22;16623;53.632;10.016;2024-03-07T07:07:50;2.60;99.90
29713;DHT22;16623;53.632;10.016;2024-03-07T07:10:16;2.50;99.90
29713;DHT22;16623;53.632;10.016;2024-03-07T07:12:45;2.60;99.90
29713;DHT22;16623;53.632;10.016;2024-03-07T07:15:11;2.60;99.90
29713;DHT22;16623;53.632;10.016;2024-03-07T07:17:37;2.60;99.90
29713;DHT22;16623;53.632;10.016;2024-03-07T07:20:04;2.70;99.90
29713;DHT22;16623;53.632;10.016;2024-03-07T07:22:39;2.60;99.90
29713;DHT22;16623;53.632;10.016;2024-03-07T07:25:05;2.70;99.90
29713;DHT22;16623;53.632;10.016;2024-03-07T07:27:34;2.60;99.90
29713;DHT22;16623;53.632;10.016;2024-03-07T07:30:00;2.60;99.90
29713;DHT22;16623;53.632;10.016;2024-03-07T07:32:25;2.60;99.90
29713;DHT22;16623;53.632;10.016;2024-03-07T07:34:53;2.60;99.90
29713;DHT22;16623;53.632;10.016;2024-03-07T07:37:19;2.70;99.90
29713;DHT22;16623;53.632;10.016;2024-03-07T07:39:45;2.80;99.90
29713;DHT22;16623;53.632;10.016;2024-03-07T07:42:11;2.80;99.90
29713;DHT22;16623;53.632;10.016;2024-03-07T07:44:36;2.80;99.90
29713;DHT22;16623;53.632;10.016;2024-03-07T07:47:02;2.80;99.90
29713;DHT22;16623;53.632;10.016;2024-03-07T07:49:27;2.90;99.90
29713;DHT22;16623;53.632;10.016;2024-03-07T07:51:53;3.00;99.90
29713;DHT22;16623;53.632;10.016;2024-03-07T07:54:19;2.80;99.90
29713;DHT22;16623;53.632;10.016;2024-03-07T07:56:46;2.80;99.90
29713;DHT22;16623;53.632;10.016;2024-03-07T07:59:14;2.90;99.90
29713;DHT22;16623;53.632;10.016;2024-03-07T08:01:40;3.00;99.90
29713;DHT22;16623;53.632;10.016;2024-03-07T08:04:05;3.00;99.90
29713;DHT22;16623;53.632;10.016;2024-03-07T08:06:31;3.00;99.90
29713;DHT22;16623;53.632;10.016;2024-03-07T08:08:57;3.00;99.90
29713;DHT22;16623;53.632;10.016;2024-03-07T08:11:22;3.10;99.90
29713;DHT22;16623;53.632;10.016;2024-03-07T08:13:48;3.00;99.90
29713;DHT22;16623;53.632;10.016;2024-03-07T08:16:16;2.90;99.90
29713;DHT22;16623;53.632;10.016;2024-03-07T08:18:41;3.00;99.90
29713;DHT22;16623;53.632;10.016;2024-03-07T08:21:07;3.10;99.90
29713;DHT22;16623;53.632;10.016;2024-03-07T08:23:39;3.10;99.90
29713;DHT22;16623;53.632;10.016;2024-03-07T08:26:04;3.20;99.90
29713;DHT22;16623;53.632;10.016;2024-03-07T08:28:31;3.20;99.90
29713;DHT22;16623;53.632;10.016;2024-03-07T08:30:56;3.50;99.90
29713;DHT22;16623;53.632;10.016;2024-03-07T08:33:22;3.40;99.90
29713;DHT22;16623;53.632;10.016;2024-03-07T08:35:48;3.50;99.90
29713;DHT22;16623;53.632;10.016;2024-03-07T08:38:15;3.40;99.90
29713;DHT22;16623;53.632;10.016;2024-03-07T08:40:40;3.30;99.90
29713;DHT22;16623;53.632;10.016;2024-03-07T08:43:06;3.10;99.90
29713;DHT22;16623;53.632;10.016;2024-03-07T08:45:32;3.30;99.90
29713;DHT22;16623;53.632;10.016;2024-03-07T08:47:59;3.50;99.90
29713;DHT22;16623;53.632;10.016;2024-03-07T08:50:26;3.40;99.90
29713;DHT22;16623;53.632;10.016;2024-03-07T08:52:52;3.60;99.90
29713;DHT22;16623;53.632;10.016;2024-03-07T08:55:23;3.60;99.90
29713;DHT22;16623;53.632;10.016;2024-03-07T08:57:50;3.30;99.90
29713;DHT22;16623;53.632;10.016;2024-03-07T09:00:17;3.20;99.90
29713;DHT22;16623;53.632;10.016;2024-03-07T09:02:59;3.30;99.90
29713;DHT22;16623;53.632;10.016;2024-03-07T09:05:25;3.40;99.90
29713;DHT22;16623;53.632;10.016;2024-03-07T09:07:52;3.40;99.90
29713;DHT22;16623;53.632;10.016;2024-03-07T09:10:18;3.30;99.90
29713;DHT22;16623;53.632;10.016;2024-03-07T09:12:45;3.40;99.90
29713;DHT22;16623;53.632;10.016;2024-03-07T09:15:11;3.30;99.90
29713;DHT22;16623;53.632;10.016;2024-03-07T09:17:37;3.40;99.90
29713;DHT22;16623;53.632;10.016;2024-03-07T09:20:04;3.30;99.90
29713;DHT22;16623;53.632;10.016;2024-03-07T09:22:31;3.30;99.90
29713;DHT22;16623;53.632;10.016;2024-03-07T09:24:57;3.40;99.90
29713;DHT22;16623;53.632;10.016;2024-03-07T09:27:25;3.40;99.90
29713;DHT22;16623;53.632;10.016;2024-03-07T09:29:50;3.50;99.90
29713;DHT22;16623;53.632;10.016;2024-03-07T09:32:16;3.50;99.90
29713;DHT22;16623;53.632;10.016;2024-03-07T09:34:42;3.40;99.90
29713;DHT22;16623;53.632;10.016;2024-03-07T09:37:08;3.40;99.90
29713;DHT22;16623;53.632;10.016;2024-03-07T09:39:34;3.50;99.90
29713;DHT22;16623;53.632;10.016;2024-03-07T09:42:01;3.40;99.90
29713;DHT22;16623;53.632;10.016;2024-03-07T09:44:28;3.40;99.90
29713;DHT22;16623;53.632;10.016;2024-03-07T09:46:55;3.40;99.90
29713;DHT22;16623;53.632;10.016;2024-03-07T09:49:21;3.40;99.90
29713;DHT22;16623;53.632;10.016;2024-03-07T09:51:47;3.50;99.90
29713;DHT22;16623;53.632;10.016;2024-03-07T09:54:23;3.40;99.90
29713;DHT22;16623;53.632;10.016;2024-03-07T09:56:52;3.40;99.90
29713;DHT22;16623;53.632;10.016;2024-03-07T09:59:19;3.50;99.90
29713;DHT22;16623;53.632;10.016;2024-03-07T10:01:50;3.40;99.90
29713;DHT22;16623;53.632;10.016;2024-03-07T10:04:29;3.40;99.90
29713;DHT22;16623;53.632;10.016;2024-03-07T10:06:56;3.40;99.90
29713;DHT22;16623;53.632;10.016;2024-03-07T10:09:22;3.40;99.90
29713;DHT22;16623;53.632;10.016;2024-03-07T10:12:00;3.50;99.90
29713;DHT22;16623;53.632;10.016;2024-03-07T10:14:27;3.40;99.90
29713;DHT22;16623;53.632;10.016;2024-03-07T10:16:57;3.50;99.90
29713;DHT22;16623;53.632;10.016;2024-03-07T10:19:22;3.50;99.90
29713;DHT22;16623;53.632;10.016;2024-03-07T10:21:48;3.40;99.90
29713;DHT22;16623;53.632;10.016;2024-03-07T10:24:14;3.40;99.90
29713;DHT22;16623;53.632;10.016;2024-03-07T10:26:40;3.40;99.90
29713;DHT22;16623;53.632;10.016;2024-03-07T10:29:06;3.40;99.90
29713;DHT22;16623;53.632;10.016;2024-03-07T10:31:34;3.40;99.90
29713;DHT22;16623;53.632;10.016;2024-03-07T10:34:03;3.50;99.90
29713;DHT22;16623;53.632;10.016;2024-03-07T10:36:32;3.70;99.90
29713;DHT22;16623;53.632;10.016;2024-03-07T10:39:01;3.70;99.90
29713;DHT22;16623;53.632;10.016;2024-03-07T10:41:28;3.80;99.90
29713;DHT22;16623;53.632;10.016;2024-03-07T10:43:57;3.90;99.90
29713;DHT22;16623;53.632;10.016;2024-03-07T10:46:26;4.00;99.90
29713;DHT22;16623;53.632;10.016;2024-03-07T10:48:55;4.20;99.90
29713;DHT22;16623;53.632;10.016;2024-03-07T10:51:29;4.30;99.90
29713;DHT22;16623;53.632;10.016;2024-03-07T10:54:13;4.40;99.90
29713;DHT22;16623;53.632;10.016;2024-03-07T10:57:06;4.60;99.90
29713;DHT22;16623;53.632;10.016;2024-03-07T10:59:39;4.70;99.90
29713;DHT22;16623;53.632;10.016;2024-03-07T11:02:31;4.60;99.90
29713;DHT22;16623;53.632;10.016;2024-03-07T11:05:00;4.60;99.90
29713;DHT22;16623;53.632;10.016;2024-03-07T11:07:25;4.70;99.90
29713;DHT22;16623;53.632;10.016;2024-03-07T11:09:53;4.90;99.90
29713;DHT22;16623;53.632;10.016;2024-03-07T11:12:23;4.90;99.90
29713;DHT22;16623;53.632;10.016;2024-03-07T11:14:50;4.90;99.90
29713;DHT22;16623;53.632;10.016;2024-03-07T11:17:18;4.90;99.90
29713;DHT22;16623;53.632;10.016;2024-03-07T11:19:44;4.90;99.90
29713;DHT22;16623;53.632;10.016;2024-03-07T11:22:11;5.00;99.90
29713;DHT22;16623;53.632;10.016;2024-03-07T11:24:43;5.10;99.90
29713;DHT22;16623;53.632;10.016;2024-03-07T11:27:12;5.30;99.90
29713;DHT22;16623;53.632;10.016;2024-03-07T11:29:47;5.40;99.90
29713;DHT22;16623;53.632;10.016;2024-03-07T11:32:14;5.30;99.90
29713;DHT22;16623;53.632;10.016;2024-03-07T11:34:41;5.40;99.90
29713;DHT22;16623;53.632;10.016;2024-03-07T11:37:08;5.40;99.90
29713;DHT22;16623;53.632;10.016;2024-03-07T11:39:44;5.60;99.90
29713;DHT22;16623;53.632;10.016;2024-03-07T11:42:31;5.70;99.90
29713;DHT22;16623;53.632;10.016;2024-03-07T11:44:59;5.50;99.90
29713;DHT22;16623;53.632;10.016;2024-03-07T11:47:26;5.50;99.90
29713;DHT22;16623;53.632;10.016;2024-03-07T11:49:55;5.50;99.90
29713;DHT22;16623;53.632;10.016;2024-03-07T11:52:23;5.50;99.90
29713;DHT22;16623;53.632;10.016;2024-03-07T11:54:49;5.60;99.90
29713;DHT22;16623;53.632;10.016;2024-03-07T11:57:18;5.70;99.90
29713;DHT22;16623;53.632;10.016;2024-03-07T11:59:58;5.70;99.90
29713;DHT22;16623;53.632;10.016;2024-03-07T12:02:27;5.80;99.90
29713;DHT22;16623;53.632;10.016;2024-03-07T12:04:53;5.80;99.90
29713;DHT22;16623;53.632;10.016;2024-03-07T12:07:19;5.70;99.90
29713;DHT22;16623;53.632;10.016;2024-03-07T12:09:48;5.70;99.90
29713;DHT22;16623;53.632;10.016;2024-03-07T12:12:19;5.60;99.90
29713;DHT22;16623;53.632;10.016;2024-03-07T12:14:47;5.80;99.90
29713;DHT22;16623;53.632;10.016;2024-03-07T12:17:14;6.20;99.90
29713;DHT22;16623;53.632;10.016;2024-03-07T12:19:42;5.80;99.90
29713;DHT22;16623;53.632;10.016;2024-03-07T12:22:11;5.90;99.90
29713;DHT22;16623;53.632;10.016;2024-03-07T12:24:40;5.70;99.90
29713;DHT22;16623;53.632;10.016;2024-03-07T12:27:10;5.80;99.90
29713;DHT22;16623;53.632;10.016;2024-03-07T12:29:40;5.90;99.90
29713;DHT22;16623;53.632;10.016;2024-03-07T12:32:08;6.00;99.90
29713;DHT22;16623;53.632;10.016;2024-03-07T12:34:36;6.20;99.90
29713;DHT22;16623;53.632;10.016;2024-03-07T12:37:06;6.30;99.90
29713;DHT22;16623;53.632;10.016;2024-03-07T12:39:35;6.30;99.90
29713;DHT22;16623;53.632;10.016;2024-03-07T12:42:04;6.10;99.90
29713;DHT22;16623;53.632;10.016;2024-03-07T12:44:46;6.30;99.90
29713;DHT22;16623;53.632;10.016;2024-03-07T12:47:16;6.30;99.90
29713;DHT22;16623;53.632;10.016;2024-03-07T12:49:45;6.30;99.90
29713;DHT22;16623;53.632;10.016;2024-03-07T12:52:11;6.40;99.90
29713;DHT22;16623;53.632;10.016;2024-03-07T12:54:41;6.50;99.90
29713;DHT22;16623;53.632;10.016;2024-03-07T12:57:07;6.50;99.90
29713;DHT22;16623;53.632;10.016;2024-03-07T12:59:40;6.50;99.90
29713;DHT22;16623;53.632;10.016;2024-03-07T13:02:11;6.60;99.90
29713;DHT22;16623;53.632;10.016;2024-03-07T13:04:41;6.60;99.90
29713;DHT22;16623;53.632;10.016;2024-03-07T13:07:07;6.60;99.90
29713;DHT22;16623;53.632;10.016;2024-03-07T13:09:33;6.60;99.90
29713;DHT22;16623;53.632;10.016;2024-03-07T13:11:59;6.60;99.90
29713;DHT22;16623;53.632;10.016;2024-03-07T13:14:34;6.70;99.90
29713;DHT22;16623;53.632;10.016;2024-03-07T13:17:04;6.70;99.90
29713;DHT22;16623;53.632;10.016;2024-03-07T13:19:30;6.80;99.90
29713;DHT22;16623;53.632;10.016;2024-03-07T13:21:56;6.70;99.90
29713;DHT22;16623;53.632;10.016;2024-03-07T13:24:22;6.70;99.90
29713;DHT22;16623;53.632;10.016;2024-03-07T13:26:48;6.60;99.90
29713;DHT22;16623;53.632;10.016;2024-03-07T13:29:14;6.60;99.90
29713;DHT22;16623;53.632;10.016;2024-03-07T13:31:42;6.70;99.90
29713;DHT22;16623;53.632;10.016;2024-03-07T13:34:08;7.70;99.90
29713;DHT22;16623;53.632;10.016;2024-03-07T13:36:39;6.70;99.90
29713;DHT22;16623;53.632;10.016;2024-03-07T13:39:06;6.80;99.90
29713;DHT22;16623;53.632;10.016;2024-03-07T13:41:35;6.90;99.90
29713;DHT22;16623;53.632;10.016;2024-03-07T13:44:01;7.00;99.90
29713;DHT22;16623;53.632;10.016;2024-03-07T13:46:28;6.90;99.90
29713;DHT22;16623;53.632;10.016;2024-03-07T13:48:54;7.00;99.90
29713;DHT22;16623;53.632;10.016;2024-03-07T13:51:20;7.00;99.90
29713;DHT22;16623;53.632;10.016;2024-03-07T13:53:46;7.30;99.90
29713;DHT22;16623;53.632;10.016;2024-03-07T14:07:32;7.10;99.90
29713;DHT22;16623;53.632;10.016;2024-03-07T14:13:39;7.10;99.90
29713;DHT22;16623;53.632;10.016;2024-03-07T14:25:19;7.80;99.90
29713;DHT22;16623;53.632;10.016;2024-03-07T14:27:56;7.80;99.90
29713;DHT22;16623;53.632;10.016;2024-03-07T14:30:51;7.80;99.90
29713;DHT22;16623;53.632;10.016;2024-03-07T14:33:23;7.80;99.90
29713;DHT22;16623;53.632;10.016;2024-03-07T14:38:49;7.70;99.90
29713;DHT22;16623;53.632;10.016;2024-03-07T14:41:17;7.70;99.90
29713;DHT22;16623;53.632;10.016;2024-03-07T14:43:44;7.60;99.90
29713;DHT22;16623;53.632;10.016;2024-03-07T14:46:12;7.40;99.90
29713;DHT22;16623;53.632;10.016;2024-03-07T14:48:39;7.20;99.90
29713;DHT22;16623;53.632;10.016;2024-03-07T14:51:08;7.20;99.90
29713;DHT22;16623;53.632;10.016;2024-03-07T14:53:34;7.10;99.90
29713;DHT22;16623;53.632;10.016;2024-03-07T14:56:00;7.10;99.90
29713;DHT22;16623;53.632;10.016;2024-03-07T14:58:26;7.10;99.90
29713;DHT22;16623;53.632;10.016;2024-03-07T15:00:52;7.20;99.90
29713;DHT22;16623;53.632;10.016;2024-03-07T15:03:23;7.30;99.90
29713;DHT22;16623;53.632;10.016;2024-03-07T15:05:49;7.30;99.90
29713;DHT22;16623;53.632;10.016;2024-03-07T15:08:16;7.50;99.90
29713;DHT22;16623;53.632;10.016;2024-03-07T15:10:48;7.60;99.90
29713;DHT22;16623;53.632;10.016;2024-03-07T15:13:16;7.60;99.90
29713;DHT22;16623;53.632;10.016;2024-03-07T15:15:42;7.80;99.90
29713;DHT22;16623;53.632;10.016;2024-03-07T15:18:10;7.80;99.90
29713;DHT22;16623;53.632;10.016;2024-03-07T15:20:36;7.90;99.90
29713;DHT22;16623;53.632;10.016;2024-03-07T15:23:02;7.90;99.90
29713;DHT22;16623;53.632;10.016;2024-03-07T15:25:29;7.90;99.90
29713;DHT22;16623;53.632;10.016;2024-03-07T15:27:56;7.80;99.90
29713;DHT22;16623;53.632;10.016;2024-03-07T15:30:24;7.80;99.90
29713;DHT22;16623;53.632;10.016;2024-03-07T15:33:03;7.80;99.90
29713;DHT22;16623;53.632;10.016;2024-03-07T15:35:29;7.90;99.90
29713;DHT22;16623;53.632;10.016;2024-03-07T15:40:25;7.70;99.90
29713;DHT22;16623;53.632;10.016;2024-03-07T15:45:22;7.70;99.90
29713;DHT22;16623;53.632;10.016;2024-03-07T15:47:51;7.70;99.90
29713;DHT22;16623;53.632;10.016;2024-03-07T15:50:19;7.60;99.90
29713;DHT22;16623;53.632;10.016;2024-03-07T15:52:50;7.60;99.90
29713;DHT22;16623;53.632;10.016;2024-03-07T15:55:17;7.60;99.90
29713;DHT22;16623;53.632;10.016;2024-03-07T15:57:47;7.60;99.90
29713;DHT22;16623;53.632;10.016;2024-03-07T16:00:19;7.70;99.90
29713;DHT22;16623;53.632;10.016;2024-03-07T16:02:58;7.70;99.90
29713;DHT22;16623;53.632;10.016;2024-03-07T16:05:26;7.70;99.90